Time;durP1;ratioP1;P1;durP2;ratioP2;P2;SDS_P1;SDS_P2;PMS_P1;PMS_P2;Temp;Humidity;BMP_temperature;BMP_pressure;BME280_temperature;BME280_humidity;BME280_pressure;Samples;Min_cycle;Max_cycle;Signal;HPM_P1;HPM_P2
2021/11/28 00:01:39;;;;;;;28.15;17.13;;;4.90;99.90;;;;;;5033653;28;20187;-84
2021/11/28 00:04:06;;;;;;;29.00;18.92;;;4.80;99.90;;;;;;5033820;28;20249;-83
2021/11/28 00:06:34;;;;;;;25.55;17.40;;;4.80;99.90;;;;;;5033705;28;20197;-83
2021/11/28 00:09:26;;;;;;;23.98;18.27;;;4.80;99.90;;;;;;5033722;28;20187;-83
2021/11/28 00:12:09;;;;;;;27.58;18.38;;;4.80;99.90;;;;;;5033358;28;20187;-83
2021/11/28 00:14:35;;;;;;;27.67;19.13;;;4.70;99.90;;;;;;5033610;28;20221;-83
2021/11/28 00:17:04;;;;;;;28.92;19.70;;;4.70;99.90;;;;;;5033430;28;20213;-83
2021/11/28 00:19:30;;;;;;;28.05;20.00;;;4.60;99.90;;;;;;5033565;28;20233;-82
2021/11/28 00:21:57;;;;;;;27.60;17.77;;;4.60;99.90;;;;;;5033606;28;20297;-83
2021/11/28 00:24:23;;;;;;;27.05;18.13;;;4.60;99.90;;;;;;5033399;28;20277;-86
2021/11/28 00:26:50;;;;;;;28.27;16.85;;;4.50;99.90;;;;;;5033117;28;20281;-85
2021/11/28 00:29:17;;;;;;;23.40;16.42;;;4.50;99.90;;;;;;5033682;28;20226;-86
2021/11/28 00:31:44;;;;;;;26.98;16.60;;;4.40;99.90;;;;;;5033151;28;20281;-85
2021/11/28 00:34:11;;;;;;;22.38;14.95;;;4.40;99.90;;;;;;5028026;28;20392;-85
2021/11/28 00:36:38;;;;;;;21.42;17.20;;;4.30;99.90;;;;;;5023544;28;20281;-85
2021/11/28 00:39:05;;;;;;;21.90;16.17;;;4.20;99.90;;;;;;5031847;28;20281;-85
2021/11/28 00:41:31;;;;;;;24.30;16.75;;;4.20;99.90;;;;;;5030404;28;20274;-85
2021/11/28 00:43:58;;;;;;;20.58;15.65;;;4.10;99.90;;;;;;5032538;28;20293;-87
2021/11/28 00:46:24;;;;;;;23.15;15.63;;;4.10;99.90;;;;;;5033897;28;20218;-85
2021/11/28 00:48:51;;;;;;;25.55;17.30;;;4.10;99.90;;;;;;5033789;28;20221;-85
2021/11/28 00:51:48;;;;;;;25.20;15.27;;;4.10;99.90;;;;;;5032981;28;20217;-85
2021/11/28 00:54:15;;;;;;;26.65;17.40;;;4.00;99.90;;;;;;5032821;28;20190;-84
2021/11/28 00:56:42;;;;;;;24.83;15.85;;;4.00;99.90;;;;;;5032846;28;20246;-85
2021/11/28 00:59:09;;;;;;;25.90;16.75;;;4.00;99.90;;;;;;5032859;28;20281;-84
2021/11/28 01:01:35;;;;;;;26.52;17.17;;;4.00;99.90;;;;;;5033588;28;20218;-84
2021/11/28 01:04:02;;;;;;;23.75;16.33;;;4.00;99.90;;;;;;5033273;28;20286;-84
2021/11/28 01:06:31;;;;;;;25.33;16.73;;;4.00;99.90;;;;;;5033314;28;20237;-84
2021/11/28 01:08:57;;;;;;;23.35;15.65;;;4.00;99.90;;;;;;5033531;28;20274;-84
2021/11/28 01:11:24;;;;;;;23.83;15.60;;;4.00;99.90;;;;;;5032604;28;20257;-84
2021/11/28 01:13:51;;;;;;;24.05;16.60;;;3.90;99.90;;;;;;5032918;28;20187;-84
2021/11/28 01:16:19;;;;;;;26.00;18.27;;;3.90;99.90;;;;;;5032536;28;20335;-84
2021/11/28 01:18:46;;;;;;;23.33;17.83;;;3.90;99.90;;;;;;5032911;28;20182;-83
2021/11/28 01:21:12;;;;;;;28.38;18.10;;;3.90;99.90;;;;;;5032947;28;20277;-84
2021/11/28 01:23:41;;;;;;;35.38;20.50;;;3.90;99.90;;;;;;5033801;28;20688;-87
2021/11/28 01:26:07;;;;;;;25.55;19.20;;;3.90;99.90;;;;;;5033651;28;20183;-86
2021/11/28 01:28:34;;;;;;;28.08;19.05;;;4.00;99.90;;;;;;5033546;28;20269;-85
2021/11/28 01:31:01;;;;;;;26.85;18.35;;;3.90;99.90;;;;;;5033037;28;20277;-87
2021/11/28 01:33:27;;;;;;;23.50;17.27;;;4.00;99.90;;;;;;5033022;28;20650;-86
2021/11/28 01:35:54;;;;;;;22.00;17.27;;;4.10;99.90;;;;;;5032941;28;20641;-86
2021/11/28 01:38:21;;;;;;;23.05;16.95;;;4.10;99.90;;;;;;5032861;28;20210;-86
2021/11/28 01:40:52;;;;;;;29.00;16.90;;;4.20;99.90;;;;;;5033387;28;20210;-86
2021/11/28 01:43:19;;;;;;;22.75;15.63;;;4.20;99.90;;;;;;5033248;28;20286;-85
2021/11/28 01:45:48;;;;;;;23.40;15.98;;;4.20;99.90;;;;;;5032267;28;20658;-83
2021/11/28 01:48:17;;;;;;;25.73;17.52;;;4.30;99.90;;;;;;5032707;28;20212;-83
2021/11/28 01:50:46;;;;;;;26.48;16.65;;;4.30;99.90;;;;;;5032624;28;20273;-84
2021/11/28 01:53:15;;;;;;;22.00;16.23;;;4.30;99.90;;;;;;5033090;28;20183;-84
2021/11/28 01:55:42;;;;;;;26.02;19.20;;;4.30;99.90;;;;;;5032461;28;20313;-84
2021/11/28 01:58:10;;;;;;;35.50;23.60;;;4.30;99.90;;;;;;5032795;28;20231;-85
2021/11/28 02:00:40;;;;;;;33.55;25.42;;;4.40;99.90;;;;;;5032611;28;20300;-85
2021/11/28 02:03:07;;;;;;;37.33;25.85;;;4.40;99.90;;;;;;5035746;28;20224;-83
2021/11/28 02:05:36;;;;;;;34.03;25.27;;;4.40;99.90;;;;;;5036647;28;20221;-82
2021/11/28 02:08:03;;;;;;;32.35;22.38;;;4.50;99.90;;;;;;5036329;28;20218;-82
2021/11/28 02:10:29;;;;;;;25.20;19.02;;;4.50;99.90;;;;;;5036298;28;20217;-83
2021/11/28 02:12:56;;;;;;;23.77;18.63;;;4.50;99.90;;;;;;5036531;28;20292;-83
2021/11/28 02:15:24;;;;;;;22.48;17.77;;;4.60;99.90;;;;;;5036479;28;20325;-84
2021/11/28 02:17:52;;;;;;;24.27;17.55;;;4.60;99.90;;;;;;5036337;28;20282;-83
2021/11/28 02:20:20;;;;;;;20.95;16.42;;;4.60;99.90;;;;;;5035785;28;20720;-84
2021/11/28 02:22:48;;;;;;;24.48;16.95;;;4.60;99.90;;;;;;5035989;28;20281;-83
2021/11/28 02:25:16;;;;;;;23.98;15.25;;;4.50;99.90;;;;;;5035439;28;20278;-81
2021/11/28 02:27:42;;;;;;;22.02;15.27;;;4.60;99.90;;;;;;5035200;28;20269;-81
2021/11/28 02:30:10;;;;;;;22.98;15.85;;;4.70;99.90;;;;;;5035604;28;20270;-81
2021/11/28 02:32:37;;;;;;;19.08;15.38;;;4.70;99.90;;;;;;5035651;28;20215;-82
2021/11/28 02:35:04;;;;;;;20.50;15.38;;;4.70;99.90;;;;;;5035684;28;20614;-82
2021/11/28 02:37:31;;;;;;;19.10;16.10;;;4.70;99.90;;;;;;5035500;28;20281;-82
2021/11/28 02:39:59;;;;;;;21.35;15.48;;;4.70;99.90;;;;;;5035442;28;20274;-83
2021/11/28 02:42:26;;;;;;;21.20;15.65;;;4.70;99.90;;;;;;5035029;28;20214;-82
2021/11/28 02:44:52;;;;;;;20.95;15.27;;;4.70;99.90;;;;;;5035535;28;20294;-82
2021/11/28 02:47:21;;;;;;;20.15;15.93;;;4.70;99.90;;;;;;5035609;28;20218;-83
2021/11/28 02:49:48;;;;;;;20.02;15.40;;;4.80;99.90;;;;;;5035360;28;20278;-84
2021/11/28 02:52:15;;;;;;;21.40;15.05;;;4.80;99.90;;;;;;5035287;28;20273;-84
2021/11/28 02:54:42;;;;;;;22.77;14.68;;;4.80;99.90;;;;;;5035081;28;20182;-83
2021/11/28 02:57:10;;;;;;;18.48;14.70;;;4.80;99.90;;;;;;5034372;28;20190;-84
2021/11/28 02:59:37;;;;;;;19.70;15.50;;;4.80;99.90;;;;;;5034050;28;20242;-84
2021/11/28 03:02:05;;;;;;;20.55;15.20;;;4.80;99.90;;;;;;5033755;28;20273;-84
2021/11/28 03:04:31;;;;;;;17.10;14.30;;;4.80;99.90;;;;;;5034080;28;20218;-84
2021/11/28 03:06:58;;;;;;;17.48;14.38;;;4.80;99.90;;;;;;5033823;28;20281;-84
2021/11/28 03:09:24;;;;;;;19.17;15.60;;;4.80;99.90;;;;;;5033976;28;20648;-84
2021/11/28 03:11:51;;;;;;;18.08;14.60;;;4.80;99.90;;;;;;5033885;28;20274;-83
2021/11/28 03:14:19;;;;;;;21.08;14.45;;;4.80;99.90;;;;;;5033622;28;20245;-84
2021/11/28 03:16:45;;;;;;;18.90;14.80;;;4.80;99.90;;;;;;5033721;28;20301;-84
2021/11/28 03:19:12;;;;;;;18.48;14.48;;;4.80;99.90;;;;;;5034139;28;20222;-84
2021/11/28 03:21:41;;;;;;;18.63;14.43;;;4.80;99.90;;;;;;5033760;28;20253;-84
2021/11/28 03:24:08;;;;;;;20.25;15.15;;;4.90;99.90;;;;;;5033323;28;20237;-85
2021/11/28 03:26:36;;;;;;;17.42;13.38;;;4.90;99.90;;;;;;5033600;28;20648;-85
2021/11/28 03:29:05;;;;;;;20.25;14.65;;;4.80;99.90;;;;;;5033863;28;20273;-84
2021/11/28 03:31:37;;;;;;;19.13;15.07;;;4.80;99.90;;;;;;5033328;28;20273;-84
2021/11/28 03:34:04;;;;;;;23.65;14.60;;;4.80;99.90;;;;;;5031486;28;20270;-84
2021/11/28 03:36:33;;;;;;;20.08;14.90;;;4.80;99.90;;;;;;5033070;28;20238;-84
2021/11/28 03:39:00;;;;;;;21.83;15.30;;;4.80;99.90;;;;;;5033847;28;20229;-85
2021/11/28 03:41:29;;;;;;;19.33;15.13;;;4.80;99.90;;;;;;5033750;28;20597;-84
2021/11/28 03:43:57;;;;;;;19.30;14.35;;;4.80;99.90;;;;;;5029889;28;20587;-84
2021/11/28 03:46:27;;;;;;;18.45;14.73;;;4.80;99.90;;;;;;5021341;28;20214;-84
2021/11/28 03:48:55;;;;;;;20.30;13.70;;;4.80;99.90;;;;;;5033267;28;20229;-84
2021/11/28 03:51:21;;;;;;;16.55;12.63;;;4.70;99.90;;;;;;5033290;28;20245;-84
2021/11/28 03:53:48;;;;;;;15.05;12.90;;;4.70;99.90;;;;;;5033493;28;20285;-84
2021/11/28 03:56:15;;;;;;;17.63;14.47;;;4.70;99.90;;;;;;4999624;28;976162;-85
2021/11/28 03:58:42;;;;;;;21.48;14.25;;;4.70;99.90;;;;;;5034288;28;20190;-84
2021/11/28 04:01:10;;;;;;;20.05;14.60;;;4.70;99.90;;;;;;5034450;28;20186;-86
2021/11/28 04:03:38;;;;;;;19.08;14.02;;;4.70;99.90;;;;;;5034088;28;20285;-85
2021/11/28 04:06:07;;;;;;;17.40;13.27;;;4.60;99.90;;;;;;5034304;28;20246;-85
2021/11/28 04:08:33;;;;;;;17.60;13.40;;;4.70;99.90;;;;;;5034202;28;20270;-85
2021/11/28 04:11:01;;;;;;;16.13;12.70;;;4.70;99.90;;;;;;5034329;28;20601;-87
2021/11/28 04:13:27;;;;;;;18.80;13.05;;;4.60;99.90;;;;;;5034018;28;20191;-87
2021/11/28 04:15:54;;;;;;;16.30;12.82;;;4.60;99.90;;;;;;5030616;28;20207;-86
2021/11/28 04:18:21;;;;;;;16.95;12.80;;;4.60;99.90;;;;;;5033761;28;20187;-87
2021/11/28 04:20:49;;;;;;;15.40;12.65;;;4.60;99.90;;;;;;5033914;28;20183;-84
2021/11/28 04:23:18;;;;;;;15.45;11.50;;;4.50;99.90;;;;;;5033480;28;20278;-83
2021/11/28 04:25:44;;;;;;;15.20;12.75;;;4.40;99.90;;;;;;5032641;28;20650;-83
2021/11/28 04:28:11;;;;;;;13.88;11.43;;;4.30;99.90;;;;;;5033640;28;20233;-86
2021/11/28 04:30:38;;;;;;;18.15;11.25;;;4.10;99.90;;;;;;5033579;28;20179;-86
2021/11/28 04:33:06;;;;;;;17.15;12.15;;;4.00;99.90;;;;;;5033475;28;20672;-85
2021/11/28 04:35:33;;;;;;;12.45;11.25;;;3.90;99.90;;;;;;5033213;28;20242;-85
2021/11/28 04:38:00;;;;;;;15.27;11.52;;;3.80;99.90;;;;;;5033166;28;20197;-85
2021/11/28 04:40:28;;;;;;;14.70;10.82;;;3.70;99.90;;;;;;5033467;28;20278;-82
2021/11/28 04:42:54;;;;;;;14.80;11.45;;;3.60;99.90;;;;;;5033085;28;20285;-82
2021/11/28 04:45:21;;;;;;;19.85;12.38;;;3.50;99.90;;;;;;5032990;28;20277;-84
2021/11/28 04:47:47;;;;;;;16.50;11.45;;;3.40;99.90;;;;;;5033092;28;20279;-84
2021/11/28 04:50:15;;;;;;;16.40;11.68;;;3.40;99.90;;;;;;5033457;28;20632;-84
2021/11/28 04:52:42;;;;;;;13.55;11.00;;;3.30;99.90;;;;;;5033249;28;20214;-84
2021/11/28 04:55:12;;;;;;;14.95;11.35;;;3.20;99.90;;;;;;5032877;28;20306;-84
2021/11/28 04:57:40;;;;;;;14.63;11.05;;;3.20;99.90;;;;;;5032866;28;20191;-83
2021/11/28 05:00:11;;;;;;;14.13;11.40;;;3.10;99.90;;;;;;5033042;28;20221;-84
2021/11/28 05:02:40;;;;;;;15.40;12.18;;;3.10;99.90;;;;;;5022412;28;20740;-82
2021/11/28 05:05:08;;;;;;;14.23;11.57;;;3.00;99.90;;;;;;5032886;28;20218;-82
2021/11/28 05:07:34;;;;;;;16.77;12.10;;;3.00;99.90;;;;;;5032630;28;20269;-82
2021/11/28 05:10:01;;;;;;;15.32;11.20;;;3.00;99.90;;;;;;5032752;28;20662;-83
2021/11/28 05:12:28;;;;;;;17.00;12.07;;;3.00;99.90;;;;;;5032263;28;20214;-84
2021/11/28 05:14:55;;;;;;;17.50;12.68;;;3.20;99.90;;;;;;5033146;28;20277;-84
2021/11/28 05:17:23;;;;;;;19.20;12.25;;;3.20;99.90;;;;;;5032512;28;20768;-84
2021/11/28 05:19:50;;;;;;;16.60;12.43;;;3.30;99.90;;;;;;5032934;28;20591;-83
2021/11/28 05:22:17;;;;;;;17.17;12.93;;;3.30;99.90;;;;;;5032301;28;20646;-83
2021/11/28 05:24:46;;;;;;;18.30;11.75;;;3.30;99.90;;;;;;5032380;28;20217;-82
2021/11/28 05:27:12;;;;;;;15.27;11.18;;;3.30;99.90;;;;;;5032501;28;20225;-84
2021/11/28 05:29:39;;;;;;;16.85;11.90;;;3.30;99.90;;;;;;5032681;28;20217;-85
2021/11/28 05:32:08;;;;;;;19.60;11.95;;;3.20;99.90;;;;;;5032203;28;20303;-85
2021/11/28 05:34:35;;;;;;;16.33;12.45;;;3.10;99.90;;;;;;5033003;28;20277;-84
2021/11/28 05:37:01;;;;;;;17.17;12.27;;;3.00;99.90;;;;;;5033025;28;20210;-84
2021/11/28 05:39:28;;;;;;;16.02;11.52;;;3.00;99.90;;;;;;5032278;28;20750;-84
2021/11/28 05:41:55;;;;;;;16.83;11.95;;;2.90;99.90;;;;;;5028658;28;20278;-83
2021/11/28 05:44:21;;;;;;;20.48;11.75;;;2.80;99.90;;;;;;5032326;28;20269;-83
2021/11/28 05:46:48;;;;;;;18.20;12.52;;;2.80;99.90;;;;;;5032409;28;20539;-84
2021/11/28 05:49:16;;;;;;;13.07;11.30;;;2.70;99.90;;;;;;5032428;28;20613;-84
2021/11/28 05:51:43;;;;;;;14.00;11.45;;;2.70;99.90;;;;;;5032233;28;20244;-85
2021/11/28 05:54:09;;;;;;;14.90;10.95;;;2.60;99.90;;;;;;5032105;28;20273;-84
2021/11/28 05:56:36;;;;;;;15.40;12.27;;;2.60;99.90;;;;;;5032353;28;20225;-84
2021/11/28 05:59:02;;;;;;;14.90;11.27;;;2.50;99.90;;;;;;5032545;28;20211;-85
2021/11/28 06:01:29;;;;;;;17.95;11.43;;;2.50;99.90;;;;;;5032264;28;20217;-83
2021/11/28 06:03:55;;;;;;;17.02;12.05;;;2.50;99.90;;;;;;5032040;28;20275;-84
2021/11/28 06:06:23;;;;;;;15.85;11.75;;;2.40;99.90;;;;;;5031726;28;20273;-83
2021/11/28 06:08:50;;;;;;;17.33;12.32;;;2.40;99.90;;;;;;5032064;28;20274;-83
2021/11/28 06:11:16;;;;;;;17.88;12.00;;;2.30;99.90;;;;;;5032125;28;20277;-83
2021/11/28 06:13:43;;;;;;;18.88;12.95;;;2.30;99.90;;;;;;5031969;28;20273;-83
2021/11/28 06:16:09;;;;;;;15.35;10.90;;;2.30;99.90;;;;;;5031734;28;20215;-82
2021/11/28 06:18:36;;;;;;;20.77;13.02;;;2.20;99.90;;;;;;5031730;28;20312;-83
2021/11/28 06:21:02;;;;;;;18.45;11.95;;;2.20;99.90;;;;;;5031834;28;20210;-83
2021/11/28 06:23:31;;;;;;;20.00;12.48;;;2.20;99.90;;;;;;5031889;28;20278;-83
2021/11/28 06:25:57;;;;;;;17.52;12.30;;;2.10;99.90;;;;;;5031799;28;20286;-83
2021/11/28 06:28:24;;;;;;;19.88;13.73;;;2.10;99.90;;;;;;5032187;28;20237;-84
2021/11/28 06:30:50;;;;;;;22.55;13.30;;;2.00;99.90;;;;;;5032078;28;20210;-83
2021/11/28 06:33:17;;;;;;;18.00;12.50;;;2.10;99.90;;;;;;5031904;28;20277;-83
2021/11/28 06:35:44;;;;;;;15.45;11.88;;;2.00;99.90;;;;;;5031468;28;20278;-84
2021/11/28 06:38:11;;;;;;;17.90;11.65;;;2.00;99.90;;;;;;5032000;28;20591;-84
2021/11/28 06:40:39;;;;;;;21.85;13.85;;;2.00;99.90;;;;;;5031773;28;20219;-84
2021/11/28 06:43:05;;;;;;;17.20;11.85;;;2.00;99.90;;;;;;5031801;28;20621;-83
2021/11/28 06:45:32;;;;;;;21.38;13.32;;;1.90;99.90;;;;;;5031882;28;20228;-83
2021/11/28 06:47:59;;;;;;;18.92;12.57;;;1.90;99.90;;;;;;5032057;28;20282;-82
2021/11/28 06:50:26;;;;;;;22.27;14.07;;;1.90;99.90;;;;;;5035320;28;20558;-85
2021/11/28 06:52:53;;;;;;;21.17;12.82;;;1.90;99.90;;;;;;5035902;28;20321;-85
2021/11/28 06:55:19;;;;;;;20.00;14.10;;;1.80;99.90;;;;;;5035496;28;20309;-86
2021/11/28 06:57:47;;;;;;;20.75;13.43;;;1.80;99.90;;;;;;5031935;28;20225;-85
2021/11/28 07:00:17;;;;;;;16.98;12.40;;;1.80;99.90;;;;;;5035712;28;20620;-85
2021/11/28 07:02:43;;;;;;;18.95;12.65;;;1.80;99.90;;;;;;5035739;28;20210;-85
2021/11/28 07:05:10;;;;;;;19.45;12.90;;;1.80;99.90;;;;;;5035282;28;20277;-85
2021/11/28 07:07:36;;;;;;;20.98;13.05;;;1.80;99.90;;;;;;5035476;28;20282;-85
2021/11/28 07:10:03;;;;;;;18.73;13.15;;;1.80;99.90;;;;;;5035083;28;20222;-82
2021/11/28 07:12:30;;;;;;;19.55;13.52;;;1.80;99.90;;;;;;5034831;28;20281;-82
2021/11/28 07:14:58;;;;;;;18.85;13.50;;;1.80;99.90;;;;;;5034707;28;20286;-82
2021/11/28 07:17:24;;;;;;;20.02;13.07;;;1.80;99.90;;;;;;5034750;28;20733;-82
2021/11/28 07:19:51;;;;;;;19.17;12.95;;;1.80;99.90;;;;;;5034576;28;20682;-82
2021/11/28 07:22:18;;;;;;;17.92;13.00;;;1.80;99.90;;;;;;5034593;28;20281;-83
2021/11/28 07:24:44;;;;;;;16.17;12.60;;;1.80;99.90;;;;;;5034608;28;20274;-84
2021/11/28 07:27:11;;;;;;;22.88;13.75;;;1.80;99.90;;;;;;5034903;28;20277;-84
2021/11/28 07:29:37;;;;;;;22.90;16.63;;;1.80;99.90;;;;;;5034681;28;20277;-83
2021/11/28 07:32:06;;;;;;;21.30;15.95;;;1.80;99.90;;;;;;5034613;28;20586;-83
2021/11/28 07:34:32;;;;;;;20.90;14.40;;;1.80;99.90;;;;;;5034878;28;20286;-84
2021/11/28 07:36:59;;;;;;;19.42;14.55;;;1.80;99.90;;;;;;5035033;28;20301;-84
2021/11/28 07:39:26;;;;;;;18.65;13.00;;;1.80;99.90;;;;;;5035225;28;20306;-85
2021/11/28 07:41:53;;;;;;;19.63;12.65;;;1.80;99.90;;;;;;5035271;28;20225;-85
2021/11/28 07:44:20;;;;;;;20.73;13.70;;;1.80;99.90;;;;;;5034991;28;20575;-85
2021/11/28 07:46:47;;;;;;;28.48;16.80;;;1.80;99.90;;;;;;5035396;28;20273;-85
2021/11/28 07:49:14;;;;;;;32.20;22.58;;;1.90;99.90;;;;;;5035338;28;20628;-85
2021/11/28 07:51:41;;;;;;;33.42;23.17;;;1.90;99.90;;;;;;5034769;28;20710;-85
2021/11/28 07:54:08;;;;;;;31.10;20.48;;;1.90;99.90;;;;;;5035054;28;20182;-84
2021/11/28 07:56:35;;;;;;;29.25;20.15;;;1.90;99.90;;;;;;5032996;28;20227;-86
2021/11/28 07:59:01;;;;;;;26.77;17.90;;;1.90;99.90;;;;;;5034295;28;20274;-85
2021/11/28 08:01:28;;;;;;;27.33;17.70;;;2.00;99.90;;;;;;5034375;28;20198;-84
2021/11/28 08:03:55;;;;;;;23.95;15.27;;;2.00;99.90;;;;;;5035043;28;20292;-85
2021/11/28 08:06:23;;;;;;;21.92;13.80;;;2.00;99.90;;;;;;5034293;28;20191;-85
2021/11/28 08:08:49;;;;;;;20.85;13.77;;;2.00;99.90;;;;;;5033574;28;20294;-85
2021/11/28 08:11:16;;;;;;;21.25;14.15;;;2.00;99.90;;;;;;5034408;28;20266;-86
2021/11/28 08:13:42;;;;;;;21.35;15.25;;;2.10;99.90;;;;;;5027333;28;20630;-86
2021/11/28 08:16:09;;;;;;;20.08;14.57;;;2.10;99.90;;;;;;5033953;28;20718;-85
2021/11/28 08:18:35;;;;;;;21.48;14.02;;;2.10;99.90;;;;;;5034697;28;20206;-85
2021/11/28 08:21:02;;;;;;;18.55;12.75;;;2.10;99.90;;;;;;5034389;28;20241;-85
2021/11/28 08:23:30;;;;;;;22.58;14.05;;;2.10;99.90;;;;;;5034325;28;20187;-85
2021/11/28 08:25:57;;;;;;;24.10;14.45;;;2.20;99.90;;;;;;5034276;28;20273;-83
2021/11/28 08:28:24;;;;;;;22.58;14.27;;;2.20;99.90;;;;;;5031587;28;20273;-84
2021/11/28 08:30:50;;;;;;;21.95;14.15;;;2.20;99.90;;;;;;5034023;28;20214;-84
2021/11/28 08:33:17;;;;;;;22.60;14.30;;;2.20;99.90;;;;;;5034121;28;20214;-84
2021/11/28 08:35:45;;;;;;;21.48;15.80;;;2.20;99.90;;;;;;5034356;28;20270;-83
2021/11/28 08:38:12;;;;;;;25.60;15.73;;;2.30;99.90;;;;;;5033876;28;20297;-85
2021/11/28 08:40:40;;;;;;;23.23;14.50;;;2.30;99.90;;;;;;5034065;28;20539;-86
2021/11/28 08:43:07;;;;;;;20.52;15.02;;;2.30;99.90;;;;;;5034273;28;20202;-86
2021/11/28 08:45:35;;;;;;;21.27;15.65;;;2.30;99.90;;;;;;5034085;28;20218;-86
2021/11/28 08:48:02;;;;;;;19.92;13.77;;;2.30;99.90;;;;;;5033863;28;20321;-85
2021/11/28 08:50:29;;;;;;;18.17;13.07;;;2.40;99.90;;;;;;5033959;28;20209;-86
2021/11/28 08:52:55;;;;;;;21.40;14.52;;;2.40;99.90;;;;;;5023302;28;20735;-86
2021/11/28 08:55:22;;;;;;;23.52;14.52;;;2.40;99.90;;;;;;5029342;28;20305;-86
2021/11/28 08:57:50;;;;;;;20.30;13.45;;;2.40;99.90;;;;;;5032077;28;20211;-83
2021/11/28 09:00:18;;;;;;;18.00;11.68;;;2.50;99.90;;;;;;5031177;28;20217;-84
2021/11/28 09:02:47;;;;;;;18.50;13.70;;;2.40;99.90;;;;;;5026501;28;20219;-85
2021/11/28 09:05:17;;;;;;;18.90;12.55;;;2.50;99.90;;;;;;5033558;28;20221;-86
2021/11/28 09:07:45;;;;;;;18.33;13.00;;;2.50;99.90;;;;;;5033238;28;20179;-85
2021/11/28 09:10:13;;;;;;;20.65;12.18;;;2.60;99.90;;;;;;5033256;28;20225;-84
2021/11/28 09:12:39;;;;;;;16.73;13.25;;;2.60;99.90;;;;;;5030601;28;20621;-85
2021/11/28 09:15:08;;;;;;;19.60;13.95;;;2.60;99.90;;;;;;5032775;28;20277;-87
2021/11/28 09:17:35;;;;;;;21.92;13.35;;;2.70;99.90;;;;;;5032785;28;20297;-86
2021/11/28 09:20:05;;;;;;;17.80;12.57;;;2.60;99.90;;;;;;5032096;28;20241;-87
2021/11/28 09:24:25;;;;;;;16.98;12.90;;;2.70;99.90;;;;;;5033085;28;20203;-83
2021/11/28 09:25:24;;;;;;;20.55;13.50;;;2.70;99.90;;;;;;5032154;28;20191;-82
2021/11/28 09:27:53;;;;;;;16.35;12.27;;;2.80;99.90;;;;;;5031375;28;20183;-83
2021/11/28 09:30:24;;;;;;;17.55;12.18;;;2.80;99.90;;;;;;5032866;28;20183;-82
2021/11/28 09:32:52;;;;;;;16.98;12.05;;;2.80;99.90;;;;;;5032939;28;20190;-83
2021/11/28 09:35:18;;;;;;;15.60;12.13;;;2.80;99.90;;;;;;5033304;28;20226;-84
2021/11/28 09:37:45;;;;;;;16.67;12.43;;;2.90;99.90;;;;;;5033233;28;20217;-84
2021/11/28 09:40:12;;;;;;;18.50;12.10;;;2.90;99.90;;;;;;5033033;28;20611;-85
2021/11/28 09:42:41;;;;;;;18.95;12.70;;;2.90;99.90;;;;;;5032895;28;20190;-85
2021/11/28 09:45:09;;;;;;;22.05;13.32;;;3.00;99.90;;;;;;5032843;28;20282;-84
2021/11/28 09:47:38;;;;;;;22.45;12.95;;;2.90;99.90;;;;;;5032763;28;20278;-83
2021/11/28 09:50:07;;;;;;;16.70;12.63;;;3.00;99.90;;;;;;5030486;28;20519;-81
2021/11/28 09:52:35;;;;;;;17.73;12.93;;;3.00;99.90;;;;;;5032389;28;20222;-81
2021/11/28 09:55:06;;;;;;;18.63;12.45;;;3.00;99.90;;;;;;5031791;28;20551;-81
2021/11/28 09:57:33;;;;;;;18.10;12.50;;;3.10;99.90;;;;;;5032167;28;20644;-80
2021/11/28 10:00:01;;;;;;;16.45;12.00;;;3.10;99.90;;;;;;5031078;28;20270;-82
2021/11/28 10:02:29;;;;;;;19.52;12.95;;;3.10;99.90;;;;;;5032343;28;20732;-82
2021/11/28 10:04:59;;;;;;;21.15;13.43;;;3.10;99.90;;;;;;5032879;28;20193;-83
2021/11/28 10:07:26;;;;;;;16.13;12.30;;;3.20;99.90;;;;;;5031594;28;20221;-83
2021/11/28 10:09:53;;;;;;;16.67;12.70;;;3.20;99.90;;;;;;5031748;28;20221;-82
2021/11/28 10:12:23;;;;;;;19.80;12.20;;;3.20;99.90;;;;;;5031477;28;20270;-82
2021/11/28 10:14:52;;;;;;;25.58;14.02;;;3.20;99.90;;;;;;5032227;28;20282;-82
2021/11/28 10:17:20;;;;;;;17.52;12.63;;;3.20;99.90;;;;;;5032060;28;20237;-83
2021/11/28 10:19:47;;;;;;;20.35;12.93;;;3.20;99.90;;;;;;5031749;28;20210;-83
2021/11/28 10:22:15;;;;;;;15.95;12.18;;;3.20;99.90;;;;;;5031435;28;20269;-81
2021/11/28 10:24:54;;;;;;;18.90;12.40;;;3.20;99.90;;;;;;5033073;28;20281;-82
2021/11/28 10:27:31;;;;;;;18.90;12.95;;;3.20;99.90;;;;;;5030826;28;20273;-87
2021/11/28 10:29:58;;;;;;;20.08;13.95;;;3.20;99.90;;;;;;5033859;28;20614;-80
2021/11/28 10:32:25;;;;;;;23.80;13.55;;;3.20;99.90;;;;;;5035749;28;20213;-78
2021/11/28 10:34:52;;;;;;;14.23;10.43;;;3.20;99.90;;;;;;5035922;28;20198;-79
2021/11/28 10:37:21;;;;;;;21.05;12.13;;;3.20;99.90;;;;;;5035338;28;20289;-79
2021/11/28 10:39:50;;;;;;;19.90;13.02;;;3.30;99.90;;;;;;5035813;28;20210;-80
2021/11/28 10:42:19;;;;;;;19.45;12.57;;;3.30;99.90;;;;;;5035421;28;20286;-79
2021/11/28 10:45:03;;;;;;;19.33;11.95;;;3.30;99.90;;;;;;5035792;28;20186;-80
2021/11/28 10:47:39;;;;;;;25.75;15.27;;;3.30;99.90;;;;;;5028494;28;20194;-79
2021/11/28 10:50:14;;;;;;;25.65;16.38;;;3.30;99.90;;;;;;5035515;28;20186;-77
2021/11/28 10:52:43;;;;;;;22.95;15.32;;;3.30;99.90;;;;;;5034438;28;20187;-77
2021/11/28 10:55:16;;;;;;;22.85;12.07;;;3.30;99.90;;;;;;5035085;28;20305;-77
2021/11/28 10:57:43;;;;;;;17.95;13.43;;;3.30;99.90;;;;;;5029819;28;20606;-78
2021/11/28 11:00:12;;;;;;;20.85;14.07;;;3.40;99.90;;;;;;5033566;28;20846;-78
2021/11/28 11:02:42;;;;;;;24.25;14.00;;;3.40;99.90;;;;;;5035477;28;20190;-78
2021/11/28 11:05:11;;;;;;;17.55;13.18;;;3.40;99.90;;;;;;5035492;28;20187;-77
2021/11/28 11:07:44;;;;;;;23.00;13.93;;;3.40;99.90;;;;;;5035061;28;20197;-77
2021/11/28 11:10:19;;;;;;;20.42;13.50;;;3.40;99.90;;;;;;5035101;28;20190;-77
2021/11/28 11:12:46;;;;;;;17.33;12.90;;;3.40;99.90;;;;;;5034921;28;20265;-77
2021/11/28 11:15:16;;;;;;;19.35;14.00;;;3.40;99.90;;;;;;5035496;28;20183;-78
2021/11/28 11:17:57;;;;;;;19.55;13.98;;;3.40;99.90;;;;;;5035047;28;20725;-78
2021/11/28 11:20:27;;;;;;;18.30;13.75;;;3.50;99.90;;;;;;5019031;28;20194;-78
2021/11/28 11:22:56;;;;;;;17.05;12.80;;;3.50;99.90;;;;;;5034886;28;20183;-78
2021/11/28 11:25:32;;;;;;;17.13;12.13;;;3.50;99.90;;;;;;5034593;28;20720;-77
2021/11/28 11:28:08;;;;;;;20.00;12.38;;;3.50;99.90;;;;;;5034844;28;20190;-78
2021/11/28 11:30:35;;;;;;;20.00;13.63;;;3.50;99.90;;;;;;5034882;28;20218;-77
2021/11/28 11:33:02;;;;;;;19.30;14.07;;;3.50;99.90;;;;;;5034897;28;20191;-77
2021/11/28 11:35:30;;;;;;;20.80;13.75;;;3.50;99.90;;;;;;5034583;28;20186;-77
2021/11/28 11:38:03;;;;;;;19.92;14.32;;;3.50;99.90;;;;;;5034551;28;20297;-78
2021/11/28 11:40:30;;;;;;;18.75;12.75;;;3.50;99.90;;;;;;5019435;28;21017;-77
2021/11/28 11:42:57;;;;;;;21.95;14.55;;;3.60;99.90;;;;;;5034572;28;20594;-78
2021/11/28 11:45:26;;;;;;;22.40;15.35;;;3.60;99.90;;;;;;5034681;28;20186;-78
2021/11/28 11:47:55;;;;;;;19.90;14.00;;;3.60;99.90;;;;;;5034631;28;20198;-78
2021/11/28 11:50:24;;;;;;;20.48;13.52;;;3.60;99.90;;;;;;5034191;28;20183;-78
2021/11/28 11:52:51;;;;;;;23.38;15.38;;;3.60;99.90;;;;;;5034650;28;20217;-78
2021/11/28 11:55:22;;;;;;;22.50;15.70;;;3.70;99.90;;;;;;5034488;28;20254;-78
2021/11/28 11:58:01;;;;;;;37.92;24.70;;;3.70;99.90;;;;;;5034431;28;20210;-78
2021/11/28 12:00:34;;;;;;;22.48;15.15;;;3.70;99.90;;;;;;5018773;28;20218;-78
2021/11/28 12:03:12;;;;;;;21.13;15.68;;;3.70;99.90;;;;;;5034163;28;20618;-78
2021/11/28 12:05:41;;;;;;;19.02;14.95;;;3.80;99.90;;;;;;5034599;28;20226;-78
2021/11/28 12:08:21;;;;;;;20.50;14.90;;;3.80;99.90;;;;;;5034105;28;20237;-78
2021/11/28 12:11:11;;;;;;;20.30;14.23;;;3.80;99.90;;;;;;5034344;28;20209;-78
2021/11/28 12:13:53;;;;;;;21.08;14.45;;;3.80;99.90;;;;;;5034086;28;20187;-78
2021/11/28 12:16:21;;;;;;;22.17;14.15;;;3.80;99.90;;;;;;5033999;28;20266;-78
2021/11/28 12:18:49;;;;;;;21.17;14.45;;;3.80;99.90;;;;;;5033807;28;20202;-78
2021/11/28 12:21:18;;;;;;;19.40;13.25;;;3.80;99.90;;;;;;5033998;28;20190;-78
2021/11/28 12:24:02;;;;;;;18.48;14.73;;;3.80;99.90;;;;;;5033548;28;20611;-78
2021/11/28 12:26:44;;;;;;;18.73;13.80;;;3.90;99.90;;;;;;5017304;28;20241;-78
2021/11/28 12:29:29;;;;;;;19.05;13.80;;;3.90;99.90;;;;;;5033924;28;20556;-78
2021/11/28 12:32:12;;;;;;;19.63;13.52;;;3.90;99.90;;;;;;5033709;28;20593;-78
2021/11/28 12:34:45;;;;;;;19.60;15.00;;;3.80;99.90;;;;;;5032397;28;20346;-78
2021/11/28 12:37:20;;;;;;;19.67;14.85;;;3.80;99.90;;;;;;5031747;28;20219;-77
2021/11/28 12:39:47;;;;;;;20.48;13.65;;;3.80;99.90;;;;;;5029289;28;20711;-78
2021/11/28 12:42:19;;;;;;;19.65;14.60;;;3.80;99.90;;;;;;5032004;28;20214;-79